sensor_id;sensor_type;location;lat;lon;timestamp;pressure;altitude;pressure_sealevel;temperature;humidity
9307;BME280;4691;47.612;7.610;2023-04-23T00:00:51;98174.69;;;13.07;100.00
9307;BME280;4691;47.612;7.610;2023-04-23T00:03:17;98170.69;;;13.12;100.00
9307;BME280;4691;47.612;7.610;2023-04-23T00:05:43;98169.16;;;13.09;100.00
9307;BME280;4691;47.612;7.610;2023-04-23T00:08:09;98156.56;;;13.10;100.00
9307;BME280;4691;47.612;7.610;2023-04-23T00:10:35;98152.91;;;13.11;100.00
9307;BME280;4691;47.612;7.610;2023-04-23T00:13:01;98154.53;;;13.21;100.00
9307;BME280;4691;47.612;7.610;2023-04-23T00:15:27;98159.34;;;13.18;100.00
9307;BME280;4691;47.612;7.610;2023-04-23T00:17:52;98147.22;;;13.14;100.00
9307;BME280;4691;47.612;7.610;2023-04-23T00:20:17;98153.97;;;13.18;100.00
9307;BME280;4691;47.612;7.610;2023-04-23T00:22:43;98157.13;;;13.13;100.00
9307;BME280;4691;47.612;7.610;2023-04-23T00:25:11;98161.63;;;13.13;100.00
9307;BME280;4691;47.612;7.610;2023-04-23T00:27:36;98156.25;;;13.13;100.00
9307;BME280;4691;47.612;7.610;2023-04-23T00:30:03;98148.03;;;12.96;100.00
9307;BME280;4691;47.612;7.610;2023-04-23T00:32:28;98137.22;;;12.88;100.00
9307;BME280;4691;47.612;7.610;2023-04-23T00:34:54;98125.84;;;12.76;100.00
9307;BME280;4691;47.612;7.610;2023-04-23T00:37:20;98107.16;;;12.67;100.00
9307;BME280;4691;47.612;7.610;2023-04-23T00:39:46;98081.22;;;12.57;100.00
9307;BME280;4691;47.612;7.610;2023-04-23T00:42:11;98051.34;;;12.52;100.00
9307;BME280;4691;47.612;7.610;2023-04-23T00:44:38;98026.28;;;12.44;100.00
9307;BME280;4691;47.612;7.610;2023-04-23T00:47:05;97972.41;;;12.37;100.00
9307;BME280;4691;47.612;7.610;2023-04-23T00:49:35;97943.81;;;12.28;100.00
9307;BME280;4691;47.612;7.610;2023-04-23T00:52:01;97931.72;;;12.24;100.00
9307;BME280;4691;47.612;7.610;2023-04-23T00:54:26;97918.91;;;12.17;100.00
9307;BME280;4691;47.612;7.610;2023-04-23T00:56:53;97888.78;;;12.15;100.00
9307;BME280;4691;47.612;7.610;2023-04-23T00:59:19;97878.66;;;12.09;100.00
9307;BME280;4691;47.612;7.610;2023-04-23T01:01:44;97847.94;;;12.04;100.00
9307;BME280;4691;47.612;7.610;2023-04-23T01:04:15;97818.94;;;11.99;100.00
9307;BME280;4691;47.612;7.610;2023-04-23T01:06:41;97806.84;;;11.95;100.00
9307;BME280;4691;47.612;7.610;2023-04-23T01:09:08;97801.78;;;11.92;100.00
9307;BME280;4691;47.612;7.610;2023-04-23T01:11:38;97782.63;;;11.87;100.00
9307;BME280;4691;47.612;7.610;2023-04-23T01:14:03;97762.91;;;11.88;100.00
9307;BME280;4691;47.612;7.610;2023-04-23T01:16:29;97750.50;;;11.87;100.00
9307;BME280;4691;47.612;7.610;2023-04-23T01:18:55;97733.72;;;11.85;100.00
9307;BME280;4691;47.612;7.610;2023-04-23T01:21:21;97721.31;;;11.84;100.00
9307;BME280;4691;47.612;7.610;2023-04-23T01:23:46;97705.56;;;11.81;100.00
9307;BME280;4691;47.612;7.610;2023-04-23T01:26:12;97692.16;;;11.81;100.00
9307;BME280;4691;47.612;7.610;2023-04-23T01:28:39;97673.28;;;11.82;100.00
9307;BME280;4691;47.612;7.610;2023-04-23T01:31:05;97661.69;;;11.82;100.00
9307;BME280;4691;47.612;7.610;2023-04-23T01:33:31;97641.97;;;11.83;100.00
9307;BME280;4691;47.612;7.610;2023-04-23T01:35:57;97603.97;;;11.79;100.00
9307;BME280;4691;47.612;7.610;2023-04-23T01:38:24;97611.69;;;11.82;100.00
9307;BME280;4691;47.612;7.610;2023-04-23T01:40:51;97615.19;;;11.83;100.00
9307;BME280;4691;47.612;7.610;2023-04-23T01:43:16;97609.78;;;11.74;100.00
9307;BME280;4691;47.612;7.610;2023-04-23T01:45:42;97591.03;;;11.74;100.00
9307;BME280;4691;47.612;7.610;2023-04-23T01:48:08;97600.91;;;11.74;100.00
9307;BME280;4691;47.612;7.610;2023-04-23T01:50:34;97598.69;;;11.69;100.00
9307;BME280;4691;47.612;7.610;2023-04-23T01:53:00;97611.41;;;11.67;100.00
9307;BME280;4691;47.612;7.610;2023-04-23T01:55:25;97638.50;;;11.64;100.00
9307;BME280;4691;47.612;7.610;2023-04-23T01:57:51;97658.22;;;11.63;100.00
9307;BME280;4691;47.612;7.610;2023-04-23T02:00:16;97654.00;;;11.61;100.00
9307;BME280;4691;47.612;7.610;2023-04-23T02:02:43;97661.19;;;11.60;100.00
9307;BME280;4691;47.612;7.610;2023-04-23T02:05:18;97666.88;;;11.57;100.00
9307;BME280;4691;47.612;7.610;2023-04-23T02:07:45;97663.34;;;11.57;100.00
9307;BME280;4691;47.612;7.610;2023-04-23T02:10:11;97679.56;;;11.55;100.00
9307;BME280;4691;47.612;7.610;2023-04-23T02:12:36;97687.91;;;11.52;100.00
9307;BME280;4691;47.612;7.610;2023-04-23T02:15:02;97685.09;;;11.53;100.00
9307;BME280;4691;47.612;7.610;2023-04-23T02:19:31;97565.78;;;11.51;100.00
9307;BME280;4691;47.612;7.610;2023-04-23T02:21:59;97619.47;;;11.49;100.00
9307;BME280;4691;47.612;7.610;2023-04-23T02:24:24;97650.75;;;11.49;100.00
9307;BME280;4691;47.612;7.610;2023-04-23T02:26:49;97649.03;;;11.48;100.00
9307;BME280;4691;47.612;7.610;2023-04-23T02:29:15;97642.84;;;11.47;100.00
9307;BME280;4691;47.612;7.610;2023-04-23T02:31:40;97644.00;;;11.45;100.00
9307;BME280;4691;47.612;7.610;2023-04-23T02:34:06;97646.00;;;11.43;100.00
9307;BME280;4691;47.612;7.610;2023-04-23T02:36:31;97648.66;;;11.43;100.00
9307;BME280;4691;47.612;7.610;2023-04-23T02:38:56;97667.13;;;11.46;100.00
9307;BME280;4691;47.612;7.610;2023-04-23T02:41:21;97689.19;;;11.48;100.00
9307;BME280;4691;47.612;7.610;2023-04-23T02:43:47;97694.72;;;11.46;100.00
9307;BME280;4691;47.612;7.610;2023-04-23T02:46:12;97713.59;;;11.45;100.00
9307;BME280;4691;47.612;7.610;2023-04-23T02:48:39;97727.28;;;11.42;100.00
9307;BME280;4691;47.612;7.610;2023-04-23T02:51:08;97755.72;;;11.43;100.00
9307;BME280;4691;47.612;7.610;2023-04-23T02:53:34;97773.09;;;11.39;100.00
9307;BME280;4691;47.612;7.610;2023-04-23T02:55:59;97794.66;;;11.37;100.00
9307;BME280;4691;47.612;7.610;2023-04-23T02:58:25;97805.22;;;11.39;100.00
9307;BME280;4691;47.612;7.610;2023-04-23T03:00:51;97826.63;;;11.39;100.00
9307;BME280;4691;47.612;7.610;2023-04-23T03:03:17;97821.56;;;11.36;100.00
9307;BME280;4691;47.612;7.610;2023-04-23T03:05:42;97834.56;;;11.30;100.00
9307;BME280;4691;47.612;7.610;2023-04-23T03:08:07;97846.25;;;11.29;100.00
9307;BME280;4691;47.612;7.610;2023-04-23T03:10:33;97911.16;;;11.31;100.00
9307;BME280;4691;47.612;7.610;2023-04-23T03:12:58;97931.88;;;11.29;100.00
9307;BME280;4691;47.612;7.610;2023-04-23T03:15:24;97951.19;;;11.33;100.00
9307;BME280;4691;47.612;7.610;2023-04-23T03:17:49;97957.38;;;11.33;100.00
9307;BME280;4691;47.612;7.610;2023-04-23T03:20:16;97977.06;;;11.32;100.00
9307;BME280;4691;47.612;7.610;2023-04-23T03:22:42;97980.75;;;11.31;100.00
9307;BME280;4691;47.612;7.610;2023-04-23T03:25:08;97984.44;;;11.30;100.00
9307;BME280;4691;47.612;7.610;2023-04-23T03:27:33;97987.53;;;11.26;100.00
9307;BME280;4691;47.612;7.610;2023-04-23T03:29:59;97985.16;;;11.23;100.00
9307;BME280;4691;47.612;7.610;2023-04-23T03:32:24;97972.91;;;11.20;100.00
9307;BME280;4691;47.612;7.610;2023-04-23T03:34:49;97952.63;;;11.18;100.00
9307;BME280;4691;47.612;7.610;2023-04-23T03:37:15;97954.16;;;11.20;100.00
9307;BME280;4691;47.612;7.610;2023-04-23T03:39:40;97965.56;;;11.22;100.00
9307;BME280;4691;47.612;7.610;2023-04-23T03:42:05;97979.91;;;11.31;100.00
9307;BME280;4691;47.612;7.610;2023-04-23T03:44:31;97970.63;;;11.25;100.00
9307;BME280;4691;47.612;7.610;2023-04-23T03:46:56;97971.19;;;11.19;100.00
9307;BME280;4691;47.612;7.610;2023-04-23T03:49:21;97983.59;;;11.20;100.00
9307;BME280;4691;47.612;7.610;2023-04-23T03:51:47;97999.66;;;11.20;100.00
9307;BME280;4691;47.612;7.610;2023-04-23T03:54:12;98021.75;;;11.22;100.00
9307;BME280;4691;47.612;7.610;2023-04-23T03:56:37;98059.91;;;11.24;100.00
9307;BME280;4691;47.612;7.610;2023-04-23T03:59:03;98082.75;;;11.28;100.00
9307;BME280;4691;47.612;7.610;2023-04-23T04:01:28;98118.25;;;11.30;100.00
9307;BME280;4691;47.612;7.610;2023-04-23T04:03:53;98132.88;;;11.26;100.00
9307;BME280;4691;47.612;7.610;2023-04-23T04:06:19;98128.09;;;11.20;100.00
9307;BME280;4691;47.612;7.610;2023-04-23T04:08:44;98133.72;;;11.17;100.00
9307;BME280;4691;47.612;7.610;2023-04-23T04:11:10;98123.88;;;11.18;100.00
9307;BME280;4691;47.612;7.610;2023-04-23T04:13:35;98131.03;;;11.17;100.00
9307;BME280;4691;47.612;7.610;2023-04-23T04:16:01;98137.38;;;11.16;100.00
9307;BME280;4691;47.612;7.610;2023-04-23T04:18:26;98140.78;;;11.18;100.00
9307;BME280;4691;47.612;7.610;2023-04-23T04:20:51;98156.84;;;11.18;100.00
9307;BME280;4691;47.612;7.610;2023-04-23T04:23:17;98166.69;;;11.18;100.00
9307;BME280;4691;47.612;7.610;2023-04-23T04:25:42;98192.59;;;11.17;100.00
9307;BME280;4691;47.612;7.610;2023-04-23T04:28:09;98188.94;;;11.18;100.00
9307;BME280;4691;47.612;7.610;2023-04-23T04:30:36;98210.34;;;11.18;100.00
9307;BME280;4691;47.612;7.610;2023-04-23T04:33:02;98211.91;;;11.21;100.00
9307;BME280;4691;47.612;7.610;2023-04-23T04:35:27;98220.78;;;11.21;100.00
9307;BME280;4691;47.612;7.610;2023-04-23T04:37:53;98225.28;;;11.21;100.00
9307;BME280;4691;47.612;7.610;2023-04-23T04:40:19;98238.38;;;11.24;100.00
9307;BME280;4691;47.612;7.610;2023-04-23T04:42:44;98245.28;;;11.26;100.00
9307;BME280;4691;47.612;7.610;2023-04-23T04:45:10;98247.84;;;11.28;100.00
9307;BME280;4691;47.612;7.610;2023-04-23T04:47:36;98275.56;;;11.27;100.00
9307;BME280;4691;47.612;7.610;2023-04-23T04:50:02;98271.50;;;11.23;100.00
9307;BME280;4691;47.612;7.610;2023-04-23T04:52:27;98272.06;;;11.26;100.00
9307;BME280;4691;47.612;7.610;2023-04-23T04:54:52;98263.59;;;11.21;100.00
9307;BME280;4691;47.612;7.610;2023-04-23T04:57:18;98253.16;;;11.18;100.00
9307;BME280;4691;47.612;7.610;2023-04-23T04:59:45;98251.75;;;11.24;100.00
9307;BME280;4691;47.612;7.610;2023-04-23T05:02:11;98248.69;;;11.28;100.00
9307;BME280;4691;47.612;7.610;2023-04-23T05:04:36;98241.63;;;11.27;100.00
9307;BME280;4691;47.612;7.610;2023-04-23T05:07:01;98232.63;;;11.28;100.00
9307;BME280;4691;47.612;7.610;2023-04-23T05:09:26;98228.66;;;11.32;100.00
9307;BME280;4691;47.612;7.610;2023-04-23T05:11:52;98220.94;;;11.39;100.00
9307;BME280;4691;47.612;7.610;2023-04-23T05:14:17;98217.84;;;11.44;100.00
9307;BME280;4691;47.612;7.610;2023-04-23T05:16:42;98211.50;;;11.45;100.00
9307;BME280;4691;47.612;7.610;2023-04-23T05:19:08;98201.50;;;11.47;100.00
9307;BME280;4691;47.612;7.610;2023-04-23T05:21:33;98195.56;;;11.53;100.00
9307;BME280;4691;47.612;7.610;2023-04-23T05:23:59;98181.63;;;11.59;100.00
9307;BME280;4691;47.612;7.610;2023-04-23T05:26:24;98172.31;;;11.63;100.00
9307;BME280;4691;47.612;7.610;2023-04-23T05:28:49;98135.94;;;11.61;100.00
9307;BME280;4691;47.612;7.610;2023-04-23T05:31:15;98117.78;;;11.64;100.00
9307;BME280;4691;47.612;7.610;2023-04-23T05:33:40;98071.44;;;11.64;100.00
9307;BME280;4691;47.612;7.610;2023-04-23T05:36:07;98041.81;;;11.65;100.00
9307;BME280;4691;47.612;7.610;2023-04-23T05:38:33;98008.84;;;11.65;100.00
9307;BME280;4691;47.612;7.610;2023-04-23T05:40:58;97980.91;;;11.67;100.00
9307;BME280;4691;47.612;7.610;2023-04-23T05:43:23;97948.19;;;11.73;100.00
9307;BME280;4691;47.612;7.610;2023-04-23T05:45:48;97921.94;;;11.87;100.00
9307;BME280;4691;47.612;7.610;2023-04-23T05:48:14;97895.41;;;11.93;100.00
9307;BME280;4691;47.612;7.610;2023-04-23T05:50:39;97845.41;;;12.02;100.00
9307;BME280;4691;47.612;7.610;2023-04-23T05:53:04;97791.59;;;12.13;100.00
9307;BME280;4691;47.612;7.610;2023-04-23T05:55:30;97739.13;;;12.29;100.00
9307;BME280;4691;47.612;7.610;2023-04-23T05:57:55;97686.59;;;12.36;100.00
9307;BME280;4691;47.612;7.610;2023-04-23T06:00:21;97606.53;;;12.41;100.00
9307;BME280;4691;47.612;7.610;2023-04-23T06:02:46;97527.78;;;12.42;100.00
9307;BME280;4691;47.612;7.610;2023-04-23T06:05:12;97486.25;;;12.54;100.00
9307;BME280;4691;47.612;7.610;2023-04-23T06:07:37;97431.47;;;12.57;100.00
9307;BME280;4691;47.612;7.610;2023-04-23T06:10:03;97377.34;;;12.61;100.00
9307;BME280;4691;47.612;7.610;2023-04-23T06:12:29;97362.91;;;12.71;100.00
9307;BME280;4691;47.612;7.610;2023-04-23T06:14:55;97362.91;;;12.79;100.00
9307;BME280;4691;47.612;7.610;2023-04-23T06:17:21;97367.09;;;12.81;100.00
9307;BME280;4691;47.612;7.610;2023-04-23T06:19:46;97380.34;;;12.83;100.00
9307;BME280;4691;47.612;7.610;2023-04-23T06:22:11;97398.09;;;12.84;100.00
9307;BME280;4691;47.612;7.610;2023-04-23T06:24:37;97411.84;;;12.81;100.00
9307;BME280;4691;47.612;7.610;2023-04-23T06:27:02;97425.28;;;12.73;100.00
9307;BME280;4691;47.612;7.610;2023-04-23T06:29:28;97440.00;;;12.69;100.00
9307;BME280;4691;47.612;7.610;2023-04-23T06:31:54;97446.38;;;12.68;100.00
9307;BME280;4691;47.612;7.610;2023-04-23T06:34:20;97450.72;;;12.69;100.00
9307;BME280;4691;47.612;7.610;2023-04-23T06:36:45;97456.44;;;12.74;100.00
9307;BME280;4691;47.612;7.610;2023-04-23T06:39:11;97458.13;;;12.83;100.00
9307;BME280;4691;47.612;7.610;2023-04-23T06:41:37;97476.56;;;12.78;100.00
9307;BME280;4691;47.612;7.610;2023-04-23T06:44:02;97492.66;;;12.78;100.00
9307;BME280;4691;47.612;7.610;2023-04-23T06:46:27;97492.00;;;12.84;100.00
9307;BME280;4691;47.612;7.610;2023-04-23T06:48:53;97492.31;;;12.89;100.00
9307;BME280;4691;47.612;7.610;2023-04-23T06:51:18;97499.38;;;12.98;100.00
9307;BME280;4691;47.612;7.610;2023-04-23T06:53:43;97505.44;;;13.08;100.00
9307;BME280;4691;47.612;7.610;2023-04-23T06:56:08;97536.97;;;13.15;100.00
9307;BME280;4691;47.612;7.610;2023-04-23T06:58:34;97567.16;;;13.17;100.00
9307;BME280;4691;47.612;7.610;2023-04-23T07:01:00;97628.72;;;13.18;100.00
9307;BME280;4691;47.612;7.610;2023-04-23T07:03:29;97635.28;;;13.24;100.00
9307;BME280;4691;47.612;7.610;2023-04-23T07:05:56;97629.94;;;13.32;100.00
9307;BME280;4691;47.612;7.610;2023-04-23T07:08:21;97666.22;;;13.44;100.00
9307;BME280;4691;47.612;7.610;2023-04-23T07:10:47;97678.13;;;13.42;100.00
9307;BME280;4691;47.612;7.610;2023-04-23T07:13:12;97657.81;;;13.56;100.00
9307;BME280;4691;47.612;7.610;2023-04-23T07:15:38;97656.31;;;13.61;100.00
9307;BME280;4691;47.612;7.610;2023-04-23T07:18:04;97679.34;;;13.72;100.00
9307;BME280;4691;47.612;7.610;2023-04-23T07:20:30;97726.00;;;13.79;100.00
9307;BME280;4691;47.612;7.610;2023-04-23T07:22:57;97732.41;;;13.94;100.00
9307;BME280;4691;47.612;7.610;2023-04-23T07:25:22;97753.91;;;13.94;100.00
9307;BME280;4691;47.612;7.610;2023-04-23T07:27:48;97750.06;;;14.05;100.00
9307;BME280;4691;47.612;7.610;2023-04-23T07:30:14;97774.91;;;14.07;100.00
9307;BME280;4691;47.612;7.610;2023-04-23T07:32:40;97822.13;;;14.10;100.00
9307;BME280;4691;47.612;7.610;2023-04-23T07:35:06;97816.44;;;14.21;100.00
9307;BME280;4691;47.612;7.610;2023-04-23T07:37:31;97830.72;;;14.30;100.00
9307;BME280;4691;47.612;7.610;2023-04-23T07:39:56;97870.69;;;14.33;100.00
9307;BME280;4691;47.612;7.610;2023-04-23T07:42:22;97877.94;;;14.41;100.00
9307;BME280;4691;47.612;7.610;2023-04-23T07:44:47;97866.84;;;14.44;100.00
9307;BME280;4691;47.612;7.610;2023-04-23T07:47:13;97895.78;;;14.42;100.00
9307;BME280;4691;47.612;7.610;2023-04-23T07:49:38;97930.56;;;14.43;100.00
9307;BME280;4691;47.612;7.610;2023-04-23T07:52:03;97965.03;;;14.48;100.00
9307;BME280;4691;47.612;7.610;2023-04-23T07:54:29;97990.66;;;14.60;100.00
9307;BME280;4691;47.612;7.610;2023-04-23T07:56:54;97992.66;;;14.74;100.00
9307;BME280;4691;47.612;7.610;2023-04-23T07:59:21;97977.22;;;15.01;100.00
9307;BME280;4691;47.612;7.610;2023-04-23T08:01:46;97991.69;;;15.24;100.00
9307;BME280;4691;47.612;7.610;2023-04-23T08:04:12;97996.06;;;15.42;100.00
9307;BME280;4691;47.612;7.610;2023-04-23T08:06:37;98018.59;;;15.65;100.00
9307;BME280;4691;47.612;7.610;2023-04-23T08:09:03;98044.53;;;15.75;100.00
9307;BME280;4691;47.612;7.610;2023-04-23T08:11:32;98051.22;;;15.95;100.00
9307;BME280;4691;47.612;7.610;2023-04-23T08:13:57;98063.00;;;16.02;100.00
9307;BME280;4691;47.612;7.610;2023-04-23T08:16:23;98080.81;;;16.20;100.00
9307;BME280;4691;47.612;7.610;2023-04-23T08:18:48;98098.22;;;16.09;100.00
9307;BME280;4691;47.612;7.610;2023-04-23T08:21:13;98097.72;;;15.97;100.00
9307;BME280;4691;47.612;7.610;2023-04-23T08:23:38;98100.94;;;16.01;100.00
9307;BME280;4691;47.612;7.610;2023-04-23T08:26:04;98103.09;;;16.05;100.00
9307;BME280;4691;47.612;7.610;2023-04-23T08:28:29;98114.88;;;16.13;100.00
9307;BME280;4691;47.612;7.610;2023-04-23T08:30:55;98100.97;;;16.48;100.00
9307;BME280;4691;47.612;7.610;2023-04-23T08:33:20;98118.06;;;16.72;100.00
9307;BME280;4691;47.612;7.610;2023-04-23T08:35:46;98121.47;;;17.05;100.00
9307;BME280;4691;47.612;7.610;2023-04-23T08:38:11;98121.13;;;17.31;100.00
9307;BME280;4691;47.612;7.610;2023-04-23T08:40:37;98116.75;;;17.30;100.00
9307;BME280;4691;47.612;7.610;2023-04-23T08:43:12;98104.75;;;17.56;100.00
9307;BME280;4691;47.612;7.610;2023-04-23T08:45:39;98107.38;;;17.64;100.00
9307;BME280;4691;47.612;7.610;2023-04-23T08:48:06;98116.88;;;17.60;100.00
9307;BME280;4691;47.612;7.610;2023-04-23T08:50:32;98106.78;;;17.54;100.00
9307;BME280;4691;47.612;7.610;2023-04-23T08:52:57;98110.03;;;17.49;100.00
9307;BME280;4691;47.612;7.610;2023-04-23T08:55:23;98107.50;;;17.71;100.00
9307;BME280;4691;47.612;7.610;2023-04-23T08:57:49;98108.94;;;17.81;100.00
9307;BME280;4691;47.612;7.610;2023-04-23T09:00:17;98107.06;;;18.20;100.00
9307;BME280;4691;47.612;7.610;2023-04-23T09:02:44;98118.16;;;18.40;100.00
9307;BME280;4691;47.612;7.610;2023-04-23T09:05:10;98120.41;;;18.51;100.00
9307;BME280;4691;47.612;7.610;2023-04-23T09:07:36;98113.56;;;18.70;100.00
9307;BME280;4691;47.612;7.610;2023-04-23T09:10:03;98106.59;;;18.76;100.00
9307;BME280;4691;47.612;7.610;2023-04-23T09:12:29;98104.31;;;18.64;100.00
9307;BME280;4691;47.612;7.610;2023-04-23T09:14:54;98101.19;;;18.76;100.00
9307;BME280;4691;47.612;7.610;2023-04-23T09:17:21;98109.13;;;19.13;100.00
9307;BME280;4691;47.612;7.610;2023-04-23T09:19:48;98109.41;;;19.40;100.00
9307;BME280;4691;47.612;7.610;2023-04-23T09:22:14;98103.97;;;19.83;100.00
9307;BME280;4691;47.612;7.610;2023-04-23T09:24:43;98101.81;;;20.00;100.00
9307;BME280;4691;47.612;7.610;2023-04-23T09:27:08;98100.41;;;20.04;100.00
9307;BME280;4691;47.612;7.610;2023-04-23T09:29:34;98095.97;;;20.25;100.00
9307;BME280;4691;47.612;7.610;2023-04-23T09:32:08;98088.81;;;20.17;100.00
9307;BME280;4691;47.612;7.610;2023-04-23T09:34:35;98091.66;;;20.09;100.00
9307;BME280;4691;47.612;7.610;2023-04-23T09:37:05;98083.47;;;20.37;100.00
9307;BME280;4691;47.612;7.610;2023-04-23T09:39:33;98087.75;;;20.53;100.00
9307;BME280;4691;47.612;7.610;2023-04-23T09:42:04;98090.53;;;20.59;100.00
9307;BME280;4691;47.612;7.610;2023-04-23T09:44:32;98090.44;;;20.46;100.00
9307;BME280;4691;47.612;7.610;2023-04-23T09:47:06;98081.41;;;20.39;100.00
9307;BME280;4691;47.612;7.610;2023-04-23T09:49:49;98088.06;;;20.36;100.00
9307;BME280;4691;47.612;7.610;2023-04-23T09:52:15;98086.38;;;20.00;100.00
9307;BME280;4691;47.612;7.610;2023-04-23T09:54:41;98090.13;;;20.28;100.00
9307;BME280;4691;47.612;7.610;2023-04-23T09:57:07;98064.84;;;21.37;100.00
9307;BME280;4691;47.612;7.610;2023-04-23T09:59:34;98055.63;;;23.02;100.00
9307;BME280;4691;47.612;7.610;2023-04-23T10:02:06;98049.38;;;25.01;100.00
9307;BME280;4691;47.612;7.610;2023-04-23T10:04:32;98028.13;;;26.11;100.00
9307;BME280;4691;47.612;7.610;2023-04-23T10:06:59;98026.88;;;26.77;100.00
9307;BME280;4691;47.612;7.610;2023-04-23T10:09:26;98024.47;;;27.55;100.00
9307;BME280;4691;47.612;7.610;2023-04-23T10:11:55;97996.38;;;27.82;100.00
9307;BME280;4691;47.612;7.610;2023-04-23T10:14:21;98014.56;;;27.54;100.00
9307;BME280;4691;47.612;7.610;2023-04-23T10:16:56;97995.41;;;27.25;100.00
9307;BME280;4691;47.612;7.610;2023-04-23T10:19:23;98027.28;;;25.21;100.00
9307;BME280;4691;47.612;7.610;2023-04-23T10:21:52;98048.81;;;25.29;100.00
9307;BME280;4691;47.612;7.610;2023-04-23T10:24:22;98028.44;;;26.61;100.00
9307;BME280;4691;47.612;7.610;2023-04-23T10:26:50;97981.88;;;27.07;100.00
9307;BME280;4691;47.612;7.610;2023-04-23T10:29:17;97983.44;;;26.74;100.00
9307;BME280;4691;47.612;7.610;2023-04-23T10:31:46;97966.41;;;27.01;100.00
9307;BME280;4691;47.612;7.610;2023-04-23T10:34:12;98003.16;;;27.28;100.00
9307;BME280;4691;47.612;7.610;2023-04-23T10:36:38;97969.66;;;27.94;100.00
9307;BME280;4691;47.612;7.610;2023-04-23T10:39:04;97953.78;;;27.62;100.00
9307;BME280;4691;47.612;7.610;2023-04-23T10:41:37;97964.66;;;27.23;100.00
9307;BME280;4691;47.612;7.610;2023-04-23T10:44:10;97904.75;;;28.32;100.00
9307;BME280;4691;47.612;7.610;2023-04-23T10:46:36;97919.66;;;27.58;100.00
9307;BME280;4691;47.612;7.610;2023-04-23T10:49:14;97938.56;;;26.11;100.00
9307;BME280;4691;47.612;7.610;2023-04-23T10:51:41;97941.66;;;26.15;100.00
9307;BME280;4691;47.612;7.610;2023-04-23T10:54:07;97913.56;;;27.05;100.00
9307;BME280;4691;47.612;7.610;2023-04-23T10:56:37;97900.81;;;26.13;100.00
9307;BME280;4691;47.612;7.610;2023-04-23T10:59:05;97936.78;;;25.04;100.00
9307;BME280;4691;47.612;7.610;2023-04-23T11:01:31;97957.38;;;25.07;100.00
9307;BME280;4691;47.612;7.610;2023-04-23T11:03:56;97948.34;;;25.06;100.00
9307;BME280;4691;47.612;7.610;2023-04-23T11:09:27;97930.59;;;24.97;100.00
9307;BME280;4691;47.612;7.610;2023-04-23T11:11:53;97915.38;;;25.31;100.00
9307;BME280;4691;47.612;7.610;2023-04-23T11:14:19;97895.34;;;23.98;100.00
9307;BME280;4691;47.612;7.610;2023-04-23T11:16:44;97928.75;;;23.50;100.00
9307;BME280;4691;47.612;7.610;2023-04-23T11:19:12;97926.41;;;23.10;100.00
9307;BME280;4691;47.612;7.610;2023-04-23T11:22:03;97944.56;;;23.66;100.00
9307;BME280;4691;47.612;7.610;2023-04-23T11:24:32;97909.75;;;23.87;100.00
9307;BME280;4691;47.612;7.610;2023-04-23T11:26:58;97913.66;;;23.29;100.00
9307;BME280;4691;47.612;7.610;2023-04-23T11:29:25;97941.03;;;22.46;100.00
9307;BME280;4691;47.612;7.610;2023-04-23T11:31:52;97930.91;;;23.23;100.00
9307;BME280;4691;47.612;7.610;2023-04-23T11:34:18;97882.94;;;24.51;100.00
9307;BME280;4691;47.612;7.610;2023-04-23T11:36:43;97835.25;;;25.12;100.00
9307;BME280;4691;47.612;7.610;2023-04-23T11:39:09;97830.84;;;24.88;100.00
9307;BME280;4691;47.612;7.610;2023-04-23T11:41:36;97818.03;;;25.00;100.00
9307;BME280;4691;47.612;7.610;2023-04-23T11:44:02;97848.66;;;24.67;100.00
9307;BME280;4691;47.612;7.610;2023-04-23T11:46:28;97838.81;;;24.77;100.00
9307;BME280;4691;47.612;7.610;2023-04-23T11:48:54;97862.25;;;24.55;100.00
9307;BME280;4691;47.612;7.610;2023-04-23T11:51:24;97857.03;;;24.05;100.00
9307;BME280;4691;47.612;7.610;2023-04-23T11:53:50;97869.00;;;23.67;100.00
9307;BME280;4691;47.612;7.610;2023-04-23T11:56:15;97865.59;;;23.53;100.00
9307;BME280;4691;47.612;7.610;2023-04-23T11:58:41;97872.22;;;23.39;100.00
9307;BME280;4691;47.612;7.610;2023-04-23T12:01:06;97859.75;;;23.86;100.00
9307;BME280;4691;47.612;7.610;2023-04-23T12:03:32;97865.31;;;24.47;100.00
9307;BME280;4691;47.612;7.610;2023-04-23T12:05:58;97854.53;;;24.03;100.00
9307;BME280;4691;47.612;7.610;2023-04-23T12:08:23;97874.84;;;23.89;100.00
9307;BME280;4691;47.612;7.610;2023-04-23T12:10:59;97882.78;;;23.54;100.00
9307;BME280;4691;47.612;7.610;2023-04-23T12:13:28;97874.09;;;23.20;100.00
9307;BME280;4691;47.612;7.610;2023-04-23T12:16:04;97875.91;;;23.01;100.00
9307;BME280;4691;47.612;7.610;2023-04-23T12:18:33;97877.72;;;22.82;100.00
9307;BME280;4691;47.612;7.610;2023-04-23T12:21:11;97903.13;;;22.37;100.00
9307;BME280;4691;47.612;7.610;2023-04-23T12:23:38;97903.03;;;22.06;100.00
9307;BME280;4691;47.612;7.610;2023-04-23T12:26:09;97914.50;;;22.66;100.00
9307;BME280;4691;47.612;7.610;2023-04-23T12:28:45;97893.78;;;22.97;100.00
9307;BME280;4691;47.612;7.610;2023-04-23T12:31:18;97884.38;;;23.18;100.00
9307;BME280;4691;47.612;7.610;2023-04-23T12:33:43;97879.53;;;23.63;100.00
9307;BME280;4691;47.612;7.610;2023-04-23T12:36:10;97879.38;;;23.15;100.00
9307;BME280;4691;47.612;7.610;2023-04-23T12:38:36;97856.06;;;24.90;100.00
9307;BME280;4691;47.612;7.610;2023-04-23T12:41:03;97814.25;;;25.13;100.00
9307;BME280;4691;47.612;7.610;2023-04-23T12:43:28;97778.13;;;25.75;100.00
9307;BME280;4691;47.612;7.610;2023-04-23T12:45:54;97786.34;;;26.44;100.00
9307;BME280;4691;47.612;7.610;2023-04-23T12:48:20;97812.47;;;26.06;100.00
9307;BME280;4691;47.612;7.610;2023-04-23T12:50:46;97779.97;;;25.46;100.00
9307;BME280;4691;47.612;7.610;2023-04-23T12:53:12;97816.72;;;25.14;100.00
9307;BME280;4691;47.612;7.610;2023-04-23T12:55:38;97789.16;;;25.28;100.00
9307;BME280;4691;47.612;7.610;2023-04-23T12:58:07;97785.91;;;25.07;100.00
9307;BME280;4691;47.612;7.610;2023-04-23T13:00:33;97810.94;;;24.57;100.00
9307;BME280;4691;47.612;7.610;2023-04-23T13:02:58;97796.03;;;24.11;100.00
9307;BME280;4691;47.612;7.610;2023-04-23T13:05:23;97784.97;;;24.06;100.00
9307;BME280;4691;47.612;7.610;2023-04-23T13:07:49;97784.84;;;24.01;100.00
9307;BME280;4691;47.612;7.610;2023-04-23T13:10:14;97768.81;;;24.34;100.00